Time;durP1;ratioP1;P1;durP2;ratioP2;P2;SDS_P1;SDS_P2;PMS_P1;PMS_P2;Temp;Humidity;BMP_temperature;BMP_pressure;BME280_temperature;BME280_humidity;BME280_pressure;Samples;Min_cycle;Max_cycle;Signal;HPM_P1;HPM_P2
2023/09/30 00:00:09;;;;;;;;;18.60;18.00;;;;;18.98;100.00;99106.19;6238719;28;96317;-64
2023/09/30 00:03:13;;;;;;;;;20.00;18.00;;;;;18.99;100.00;99096.06;6239369;28;96230;-64
2023/09/30 00:06:16;;;;;;;;;20.00;18.75;;;;;18.97;100.00;99100.97;6220031;28;97542;-64
2023/09/30 00:09:19;;;;;;;;;18.00;17.80;;;;;18.93;100.00;99102.59;6219884;28;97429;-64
2023/09/30 00:12:24;;;;;;;;;18.20;15.80;;;;;18.93;100.00;99102.59;6246824;27;96428;-64
2023/09/30 00:15:27;;;;;;;;;19.00;19.00;;;;;18.90;100.00;99103.16;6239184;28;96373;-64
2023/09/30 00:18:30;;;;;;;;;23.00;20.40;;;;;18.85;100.00;99095.78;6247155;27;96657;-64
2023/09/30 00:21:34;;;;;;;;;21.80;19.00;;;;;18.80;100.00;99097.69;6215959;28;96247;-64
2023/09/30 00:24:37;;;;;;;;;21.40;20.40;;;;;18.77;100.00;99092.72;6239069;28;96515;-64
2023/09/30 00:27:41;;;;;;;;;20.00;19.20;;;;;18.75;100.00;99089.47;6221920;28;96902;-64
2023/09/30 00:30:47;;;;;;;;;23.40;21.60;;;;;18.73;100.00;99088.91;6240382;28;96877;-64
2023/09/30 00:33:51;;;;;;;;;20.40;19.40;;;;;18.70;100.00;99084.81;6243651;27;96343;-64
2023/09/30 00:36:54;;;;;;;;;26.40;24.00;;;;;18.65;100.00;99089.44;6234251;28;96345;-64
2023/09/30 00:39:57;;;;;;;;;20.00;19.00;;;;;18.61;100.00;99078.25;6221384;28;96759;-64
2023/09/30 00:43:02;;;;;;;;;20.00;19.00;;;;;18.56;100.00;99079.06;6200366;28;96494;-64
2023/09/30 00:46:12;;;;;;;;;19.00;17.00;;;;;18.54;100.00;99078.50;6251545;27;98571;-64
2023/09/30 00:49:18;;;;;;;;;21.67;20.00;;;;;18.53;100.00;99085.03;6220167;28;96642;-64
2023/09/30 00:52:22;;;;;;;;;25.00;22.80;;;;;18.50;100.00;99076.53;6239894;28;96387;-64
2023/09/30 00:55:25;;;;;;;;;18.50;18.00;;;;;18.50;100.00;99071.06;6238023;28;96707;-64
2023/09/30 00:58:30;;;;;;;;;17.60;16.00;;;;;18.47;100.00;99077.88;6220601;28;96908;-64
2023/09/30 01:01:34;;;;;;;;;23.00;19.00;;;;;18.47;100.00;99083.34;6220152;28;96353;-64
2023/09/30 01:04:38;;;;;;;;;21.00;19.40;;;;;18.45;100.00;99074.63;6220538;28;96389;-64
2023/09/30 01:07:41;;;;;;;;;19.00;17.67;;;;;18.37;100.00;99061.50;6238384;28;96786;-65
2023/09/30 01:10:45;;;;;;;;;17.20;15.20;;;;;18.39;100.00;99072.94;6233021;28;96734;-64
2023/09/30 01:13:49;;;;;;;;;16.25;16.25;;;;;18.36;100.00;99065.31;6220379;28;96677;-63
2023/09/30 01:16:52;;;;;;;;;20.00;18.00;;;;;18.37;100.00;99068.84;6232405;28;96784;-64
2023/09/30 01:19:59;;;;;;;;;21.40;20.00;;;;;18.35;100.00;99068.28;6238219;28;96701;-64
2023/09/30 01:23:04;;;;;;;;;17.75;17.00;;;;;18.32;100.00;99064.19;6219276;28;96858;-65
2023/09/30 01:26:09;;;;;;;;;19.40;19.00;;;;;18.31;100.00;99056.28;6238195;28;96451;-64
2023/09/30 01:29:12;;;;;;;;;16.00;14.60;;;;;18.27;100.00;99060.63;6238485;28;97303;-64
2023/09/30 01:32:16;;;;;;;;;20.00;19.00;;;;;18.26;100.00;99068.00;6227617;28;96735;-64
2023/09/30 01:35:19;;;;;;;;;17.80;17.80;;;;;18.22;100.00;99064.16;6218482;28;97261;-63
2023/09/30 01:38:24;;;;;;;;;19.60;17.00;;;;;18.16;100.00;99055.13;6220442;28;97606;-64
2023/09/30 01:41:28;;;;;;;;;15.40;14.00;;;;;18.12;100.00;99058.66;6237521;28;96373;-64
2023/09/30 01:44:32;;;;;;;;;18.00;15.00;;;;;18.10;100.00;99055.38;6252619;27;97477;-64
2023/09/30 01:47:36;;;;;;;;;19.40;18.40;;;;;18.12;100.00;99047.75;6213462;28;96429;-64
2023/09/30 01:50:40;;;;;;;;;18.00;15.40;;;;;18.15;100.00;99058.94;6237860;28;96316;-64
2023/09/30 01:53:44;;;;;;;;;19.00;18.00;;;;;18.15;100.00;99053.47;6236903;28;97873;-63
2023/09/30 01:56:47;;;;;;;;;18.40;18.00;;;;;18.15;100.00;99048.03;6211702;28;96918;-64
2023/09/30 01:59:51;;;;;;;;;17.40;17.40;;;;;18.13;100.00;99055.66;6250092;27;96784;-64
2023/09/30 02:02:55;;;;;;;;;17.00;16.50;;;;;18.01;100.00;99038.69;6220204;28;96485;-64
2023/09/30 02:06:00;;;;;;;;;17.00;17.00;;;;;18.11;100.00;99052.38;6216814;28;96305;-64
2023/09/30 02:09:08;;;;;;;;;19.00;18.20;;;;;18.11;100.00;99051.56;6234288;27;96392;-63
2023/09/30 02:12:11;;;;;;;;;21.00;19.00;;;;;18.14;100.00;99051.00;6241027;27;96533;-64
2023/09/30 02:15:16;;;;;;;;;19.80;18.80;;;;;18.13;100.00;99047.47;6236600;28;97043;-64
2023/09/30 02:18:19;;;;;;;;;18.40;18.40;;;;;18.13;100.00;99047.47;6218403;28;97443;-64
2023/09/30 02:21:22;;;;;;;;;20.60;20.00;;;;;18.09;100.00;99048.25;6220015;27;96532;-64
2023/09/30 02:24:27;;;;;;;;;21.00;18.80;;;;;18.06;100.00;99046.06;6227446;27;96914;-64
2023/09/30 02:27:30;;;;;;;;;20.00;18.50;;;;;18.06;100.00;99043.34;6247670;27;97345;-64
2023/09/30 02:30:34;;;;;;;;;15.40;15.00;;;;;18.03;100.00;99036.50;6201825;28;96953;-63
2023/09/30 02:33:39;;;;;;;;;18.00;17.40;;;;;18.06;100.00;99044.19;6218687;28;96381;-64
2023/09/30 02:36:42;;;;;;;;;17.20;15.20;;;;;18.07;100.00;99037.63;6218689;28;96543;-64
2023/09/30 02:39:47;;;;;;;;;19.00;17.80;;;;;18.10;100.00;99044.44;6237436;28;98226;-63
2023/09/30 02:42:51;;;;;;;;;22.60;20.60;;;;;18.10;100.00;99045.28;6237001;28;96556;-64
2023/09/30 02:45:54;;;;;;;;;16.80;14.20;;;;;18.13;100.00;99047.47;6235816;28;96451;-64
2023/09/30 02:48:59;;;;;;;;;15.40;14.00;;;;;18.16;100.00;99043.41;6199426;28;96386;-64
2023/09/30 02:52:02;;;;;;;;;17.60;17.00;;;;;18.21;100.00;99043.41;6234007;28;97625;-64
2023/09/30 02:55:08;;;;;;;;;16.60;15.40;;;;;18.27;100.00;99047.81;6237244;28;96391;-63
2023/09/30 02:58:11;;;;;;;;;17.00;15.25;;;;;18.30;100.00;99044.53;6217795;28;96432;-64
2023/09/30 03:01:17;;;;;;;;;16.40;16.00;;;;;18.31;100.00;99042.63;6218335;28;96995;-64
2023/09/30 03:04:21;;;;;;;;;18.00;17.00;;;;;18.37;100.00;99033.38;6233077;28;96627;-64
2023/09/30 03:07:27;;;;;;;;;17.00;15.25;;;;;18.40;100.00;99038.28;6222620;27;96772;-64
2023/09/30 03:10:32;;;;;;;;;15.00;13.75;;;;;18.45;100.00;99022.75;6235587;27;96804;-64
2023/09/30 03:13:35;;;;;;;;;16.00;16.00;;;;;18.53;100.00;99033.16;6221357;28;96653;-64
2023/09/30 03:16:40;;;;;;;;;16.00;15.60;;;;;18.61;100.00;99020.91;6234387;27;97344;-64
2023/09/30 03:19:43;;;;;;;;;18.00;17.00;;;;;18.70;100.00;99013.81;6216831;28;97943;-64
2023/09/30 03:22:47;;;;;;;;;17.00;16.00;;;;;18.81;100.00;99010.00;6240683;27;96634;-65
2023/09/30 03:25:52;;;;;;;;;13.20;12.60;;;;;18.93;100.00;99017.91;6241913;27;96994;-64
2023/09/30 03:28:55;;;;;;;;;15.50;14.00;;;;;19.07;100.00;99012.72;6239564;27;96698;-64
2023/09/30 03:31:58;;;;;;;;;15.00;14.00;;;;;19.18;100.00;99006.97;6237332;28;96974;-65
2023/09/30 03:35:01;;;;;;;;;14.00;14.00;;;;;19.28;100.00;99006.16;6227798;28;96552;-64
2023/09/30 03:38:06;;;;;;;;;12.00;12.00;;;;;19.40;100.00;99006.69;6237280;28;97303;-64
2023/09/30 03:41:13;;;;;;;;;10.50;10.00;;;;;19.55;100.00;99012.13;6238743;28;96742;-64
2023/09/30 03:44:16;;;;;;;;;15.00;14.00;;;;;19.65;100.00;99017.59;6239027;28;96507;-64
2023/09/30 03:47:20;;;;;;;;;18.00;16.00;;;;;19.76;100.00;99018.38;6238119;28;96485;-64
2023/09/30 03:50:24;;;;;;;;;10.00;9.60;;;;;19.83;100.00;99024.41;6219712;28;98421;-64
2023/09/30 03:53:28;;;;;;;;;15.00;14.80;;;;;19.86;100.00;99030.13;6236587;27;97122;-64
2023/09/30 03:56:33;;;;;;;;;13.00;12.00;;;;;19.89;100.00;99026.81;6237874;28;97077;-64
2023/09/30 03:59:36;;;;;;;;;13.50;13.00;;;;;19.92;100.00;99019.97;6219822;28;96529;-64
2023/09/30 04:02:42;;;;;;;;;11.60;11.00;;;;;19.83;100.00;99005.25;6235778;28;96813;-64
2023/09/30 04:05:47;;;;;;;;;13.50;12.50;;;;;19.98;100.00;99020.78;6237867;28;96517;-64
2023/09/30 04:08:51;;;;;;;;;12.00;12.00;;;;;20.01;100.00;99018.31;6221300;28;96877;-64
2023/09/30 04:11:56;;;;;;;;;13.00;12.00;;;;;20.05;100.00;99021.28;6234676;28;96992;-64
2023/09/30 04:14:59;;;;;;;;;11.33;10.33;;;;;20.10;100.00;99019.34;6221760;28;96560;-64
2023/09/30 04:18:05;;;;;;;;;10.60;10.00;;;;;20.17;100.00;99017.16;6219068;28;96851;-64
2023/09/30 04:21:08;;;;;;;;;12.00;11.40;;;;;20.24;100.00;99017.66;6232228;28;97550;-64
2023/09/30 04:24:11;;;;;;;;;13.00;12.00;;;;;20.23;100.00;99016.00;6220289;28;96371;-64
2023/09/30 04:27:17;;;;;;;;;12.20;11.20;;;;;20.27;100.00;99019.84;6236503;28;96955;-64
2023/09/30 04:30:22;;;;;;;;;12.20;11.00;;;;;20.29;100.00;99022.28;6237327;28;96718;-64
2023/09/30 04:33:25;;;;;;;;;11.00;10.20;;;;;20.34;100.00;99025.03;6214123;28;97031;-64
2023/09/30 04:36:30;;;;;;;;;12.80;12.00;;;;;20.36;100.00;99028.31;6220456;28;97731;-64
2023/09/30 04:39:35;;;;;;;;;11.40;11.00;;;;;20.40;100.00;99029.38;6236779;28;97744;-64
2023/09/30 04:42:40;;;;;;;;;12.00;11.00;;;;;20.48;100.00;99033.44;6240483;27;96724;-64
2023/09/30 04:45:43;;;;;;;;;15.00;13.00;;;;;20.51;100.00;99039.19;6236924;28;96627;-64
2023/09/30 04:48:48;;;;;;;;;12.60;12.00;;;;;20.58;100.00;99047.06;6215792;28;98952;-65
2023/09/30 04:51:52;;;;;;;;;14.00;11.50;;;;;20.64;100.00;99051.41;6234379;28;97042;-64
2023/09/30 04:54:56;;;;;;;;;12.60;12.00;;;;;20.68;100.00;99058.78;6237845;28;96447;-64
2023/09/30 04:58:00;;;;;;;;;12.00;12.00;;;;;20.70;100.00;99053.84;6238339;28;97425;-64
2023/09/30 05:01:03;;;;;;;;;14.00;14.00;;;;;20.69;100.00;99059.59;6219028;28;96597;-64
2023/09/30 05:04:07;;;;;;;;;14.25;12.25;;;;;20.65;100.00;99064.03;6228185;28;96424;-64
2023/09/30 05:07:12;;;;;;;;;14.60;14.60;;;;;20.60;100.00;99066.78;6227174;28;96822;-61
2023/09/30 05:10:17;;;;;;;;;14.00;13.40;;;;;20.55;100.00;99067.63;6227290;28;96645;-61
2023/09/30 05:13:23;;;;;;;;;17.00;15.00;;;;;20.53;100.00;99069.00;6228544;28;96400;-62
2023/09/30 05:16:27;;;;;;;;;16.00;15.00;;;;;20.53;100.00;99086.25;6218455;28;96861;-61
2023/09/30 05:19:31;;;;;;;;;19.00;16.40;;;;;20.54;100.00;99089.81;6229010;28;96368;-62
2023/09/30 05:22:35;;;;;;;;;16.75;15.75;;;;;20.49;100.00;99098.06;6218432;27;96729;-62
2023/09/30 05:25:38;;;;;;;;;18.20;16.20;;;;;20.47;100.00;99101.09;6235750;28;96599;-62
2023/09/30 05:28:43;;;;;;;;;18.00;17.00;;;;;20.46;100.00;99102.19;6229714;28;96271;-62
2023/09/30 05:31:46;;;;;;;;;15.40;14.40;;;;;20.48;100.00;99107.38;6229518;28;96525;-62
2023/09/30 05:34:50;;;;;;;;;13.80;13.20;;;;;20.45;100.00;99107.94;6233368;27;96842;-61
2023/09/30 05:37:53;;;;;;;;;15.00;14.00;;;;;20.42;100.00;99116.72;6235663;28;97067;-61
2023/09/30 05:40:58;;;;;;;;;15.00;14.00;;;;;20.21;100.00;99110.47;6220567;28;96732;-61
2023/09/30 05:44:03;;;;;;;;;17.40;16.00;;;;;20.06;100.00;99114.06;6254781;27;96317;-61
2023/09/30 05:47:06;;;;;;;;;15.00;15.00;;;;;19.87;100.00;99115.75;6240066;27;96542;-61
2023/09/30 05:50:14;;;;;;;;;18.00;16.00;;;;;19.81;100.00;99103.19;6237980;28;96376;-61
2023/09/30 05:53:17;;;;;;;;;15.00;14.50;;;;;19.79;100.00;99114.41;6236956;28;97351;-62
2023/09/30 05:56:20;;;;;;;;;16.60;15.60;;;;;19.74;100.00;99114.41;6237986;28;96289;-61
2023/09/30 05:59:26;;;;;;;;;18.50;16.75;;;;;19.76;100.00;99119.59;6219635;28;97426;-61
2023/09/30 06:02:31;;;;;;;;;15.75;14.75;;;;;19.77;100.00;99118.50;6216860;28;98541;-61
2023/09/30 06:05:34;;;;;;;;;17.00;15.00;;;;;19.79;100.00;99116.34;6237563;28;96495;-61
2023/09/30 06:08:38;;;;;;;;;19.40;17.40;;;;;19.83;100.00;99120.16;6237463;28;96472;-62
2023/09/30 06:11:41;;;;;;;;;17.00;16.00;;;;;19.82;100.00;99135.75;6237774;28;96268;-61
2023/09/30 06:14:46;;;;;;;;;17.00;15.00;;;;;19.88;100.00;99129.19;6219293;28;98566;-61
2023/09/30 06:17:50;;;;;;;;;17.00;15.00;;;;;19.86;100.00;99123.16;6219348;28;96935;-61
2023/09/30 06:20:53;;;;;;;;;18.00;16.00;;;;;19.89;100.00;99125.31;6237770;28;98495;-61
2023/09/30 06:23:56;;;;;;;;;16.60;15.80;;;;;20.00;100.00;99128.03;6237769;28;96712;-61
2023/09/30 06:27:00;;;;;;;;;18.00;15.00;;;;;19.98;100.00;99128.34;6238229;28;96157;-61
2023/09/30 06:30:06;;;;;;;;;14.60;14.00;;;;;20.08;100.00;99133.78;6218550;28;98533;-61
2023/09/30 06:33:11;;;;;;;;;14.00;13.75;;;;;20.19;100.00;99129.91;6237691;28;96435;-61
2023/09/30 06:36:15;;;;;;;;;14.60;13.00;;;;;20.27;100.00;99142.22;6220408;28;97093;-61
2023/09/30 06:39:19;;;;;;;;;14.00;13.00;;;;;20.40;100.00;99157.25;6237601;28;96523;-61
2023/09/30 06:42:22;;;;;;;;;15.60;15.00;;;;;20.41;100.00;99161.66;6236927;28;97527;-62
2023/09/30 06:45:27;;;;;;;;;17.40;16.00;;;;;20.42;100.00;99163.28;6236823;28;96988;-62
2023/09/30 06:48:30;;;;;;;;;20.00;18.50;;;;;20.25;100.00;99141.66;6236957;27;96913;-62
2023/09/30 06:51:33;;;;;;;;;18.40;17.00;;;;;20.35;100.00;99174.53;6236756;28;96844;-61
2023/09/30 06:54:36;;;;;;;;;19.50;17.50;;;;;20.31;100.00;99174.28;6218174;28;96854;-61
2023/09/30 06:57:40;;;;;;;;;19.00;17.00;;;;;20.35;100.00;99176.44;6237448;28;96743;-61
2023/09/30 07:00:45;;;;;;;;;18.20;18.00;;;;;20.28;100.00;99179.47;6237513;28;96390;-62
2023/09/30 07:03:48;;;;;;;;;19.25;18.25;;;;;20.42;100.00;99194.25;6237238;28;96400;-61
2023/09/30 07:06:53;;;;;;;;;16.00;15.00;;;;;20.41;100.00;99197.25;6219180;28;96799;-61
2023/09/30 07:09:57;;;;;;;;;20.00;18.00;;;;;20.56;100.00;99188.97;6237688;28;96304;-61
2023/09/30 07:13:02;;;;;;;;;17.00;16.20;;;;;20.63;100.00;99205.94;6237445;28;96377;-61
2023/09/30 07:16:07;;;;;;;;;18.20;17.20;;;;;20.57;100.00;99207.06;6236289;28;96533;-62
2023/09/30 07:19:10;;;;;;;;;17.00;16.00;;;;;20.47;100.00;99210.66;6236895;28;98101;-61
2023/09/30 07:22:13;;;;;;;;;16.25;16.25;;;;;20.43;100.00;99208.75;6236812;28;96431;-61
2023/09/30 07:25:17;;;;;;;;;16.60;16.20;;;;;20.45;100.00;99209.28;6218773;28;96617;-62
2023/09/30 07:28:20;;;;;;;;;20.00;17.00;;;;;20.46;100.00;99209.00;6238947;27;96293;-62
2023/09/30 07:31:25;;;;;;;;;19.00;17.00;;;;;20.40;100.00;99210.13;6234596;28;96995;-61
2023/09/30 07:34:28;;;;;;;;;19.25;17.25;;;;;20.42;100.00;99218.06;6218622;28;96237;-61
2023/09/30 07:37:32;;;;;;;;;20.00;18.40;;;;;20.40;100.00;99226.53;6236848;28;96905;-61
2023/09/30 07:40:35;;;;;;;;;19.60;18.60;;;;;20.49;100.00;99235.00;6219182;28;96484;-62
2023/09/30 07:43:38;;;;;;;;;17.00;16.50;;;;;20.49;100.00;99238.56;6237327;28;96356;-62
2023/09/30 07:46:43;;;;;;;;;18.00;17.00;;;;;20.52;100.00;99227.06;6237077;28;96384;-61
2023/09/30 07:49:47;;;;;;;;;21.00;20.50;;;;;20.58;100.00;99234.16;6236313;28;96611;-61
2023/09/30 07:52:50;;;;;;;;;20.33;19.00;;;;;20.61;100.00;99239.09;6236648;28;96502;-61
2023/09/30 07:55:54;;;;;;;;;19.80;18.20;;;;;20.61;100.00;99230.88;6218236;28;98896;-61
2023/09/30 07:58:57;;;;;;;;;18.00;17.40;;;;;20.61;100.00;99222.66;6238458;28;96905;-62
2023/09/30 08:02:04;;;;;;;;;18.40;18.40;;;;;20.81;100.00;99245.59;6239999;28;96691;-61
2023/09/30 08:05:08;;;;;;;;;19.00;19.00;;;;;20.83;100.00;99251.63;6240883;28;96512;-61
2023/09/30 08:08:11;;;;;;;;;21.00;20.00;;;;;20.83;100.00;99230.50;6205910;28;96643;-61
2023/09/30 08:11:14;;;;;;;;;23.00;20.40;;;;;20.99;100.00;99253.19;6242944;27;96958;-61
2023/09/30 08:14:18;;;;;;;;;20.00;18.50;;;;;20.94;100.00;99251.31;6254602;27;96995;-61
2023/09/30 08:17:22;;;;;;;;;19.60;18.60;;;;;20.91;100.00;99245.56;6220987;28;98687;-61
2023/09/30 08:20:25;;;;;;;;;19.50;19.50;;;;;20.94;100.00;99248.56;6241431;27;96361;-61
2023/09/30 08:23:28;;;;;;;;;19.00;17.00;;;;;20.90;100.00;99249.41;6240393;27;96358;-62
2023/09/30 08:26:33;;;;;;;;;19.40;18.40;;;;;20.87;100.00;99239.81;6239398;28;96837;-61
2023/09/30 08:29:37;;;;;;;;;19.00;17.00;;;;;20.98;100.00;99257.84;6229858;27;96436;-61
2023/09/30 08:32:41;;;;;;;;;21.40;18.60;;;;;20.99;100.00;99258.69;6265077;27;96523;-61
2023/09/30 08:35:44;;;;;;;;;20.80;19.40;;;;;21.00;100.00;99257.59;6255648;27;96398;-61
2023/09/30 08:38:47;;;;;;;;;21.00;19.80;;;;;21.03;100.00;99266.06;6239958;28;96430;-61
2023/09/30 08:41:51;;;;;;;;;21.40;20.00;;;;;20.98;100.00;99255.13;6239206;28;97035;-62
2023/09/30 08:44:55;;;;;;;;;20.80;19.00;;;;;21.06;100.00;99259.22;6255870;27;96343;-61
2023/09/30 08:48:05;;;;;;;;;22.60;21.60;;;;;21.08;100.00;99259.75;6239738;28;96289;-62
2023/09/30 08:51:09;;;;;;;;;20.60;20.20;;;;;21.04;100.00;99270.47;6204373;28;98670;-61
2023/09/30 08:54:13;;;;;;;;;22.00;21.00;;;;;21.03;100.00;99262.50;6239482;28;96248;-61
2023/09/30 08:57:19;;;;;;;;;21.60;19.60;;;;;21.11;100.00;99270.16;6240027;28;97637;-61
2023/09/30 09:00:23;;;;;;;;;23.67;21.00;;;;;21.12;100.00;99278.09;6236953;28;96622;-61
2023/09/30 09:03:29;;;;;;;;;21.40;20.40;;;;;21.04;100.00;99261.41;6234352;28;96623;-62
2023/09/30 09:06:32;;;;;;;;;21.00;18.00;;;;;21.22;100.00;99265.47;6234543;27;96484;-62
2023/09/30 09:09:35;;;;;;;;;21.40;20.00;;;;;21.17;100.00;99264.38;6210013;27;98691;-61
2023/09/30 09:12:39;;;;;;;;;22.00;21.00;;;;;21.13;100.00;99256.97;6233206;28;96504;-61
2023/09/30 09:15:43;;;;;;;;;16.40;16.40;;;;;21.10;100.00;99266.59;6236271;27;96480;-61
2023/09/30 09:18:48;;;;;;;;;20.00;18.00;;;;;21.07;100.00;99274.53;6220587;27;96364;-61
2023/09/30 09:21:56;;;;;;;;;21.40;20.00;;;;;21.10;100.00;99268.50;6251933;27;96997;-61
2023/09/30 09:25:00;;;;;;;;;21.00;20.00;;;;;21.01;100.00;99262.78;6236674;28;96374;-61
2023/09/30 09:28:04;;;;;;;;;22.00;21.00;;;;;21.10;100.00;99274.00;6236981;27;96703;-61
2023/09/30 09:31:22;;;;;;;;;21.00;20.00;;;;;21.14;100.00;99273.19;6217641;28;97305;-62
2023/09/30 09:34:27;;;;;;;;;20.40;18.60;;;;;21.06;100.00;99267.44;6235535;28;97081;-61
2023/09/30 09:37:33;;;;;;;;;18.40;18.00;;;;;21.18;100.00;99267.94;6216847;28;96746;-61
2023/09/30 09:40:37;;;;;;;;;20.40;20.00;;;;;21.15;100.00;99257.56;6236660;28;96356;-61
2023/09/30 09:43:42;;;;;;;;;21.50;19.50;;;;;21.33;100.00;99267.88;6204996;28;98565;-61
2023/09/30 09:46:48;;;;;;;;;24.60;21.80;;;;;21.38;100.00;99264.28;6238933;28;96808;-61
2023/09/30 09:49:54;;;;;;;;;17.20;17.20;;;;;21.38;100.00;99264.28;6238081;28;97712;-61
2023/09/30 09:52:59;;;;;;;;;20.00;18.00;;;;;21.45;100.00;99267.56;6238518;28;96371;-61
2023/09/30 09:56:03;;;;;;;;;22.60;21.00;;;;;21.46;100.00;99264.50;6238601;28;96173;-61
2023/09/30 09:59:07;;;;;;;;;20.00;18.20;;;;;21.55;100.00;99265.53;6238736;28;96226;-62
2023/09/30 10:02:14;;;;;;;;;21.00;19.00;;;;;21.65;100.00;99272.09;6218904;28;99285;-61
2023/09/30 10:05:20;;;;;;;;;19.40;18.80;;;;;21.68;100.00;99271.50;6238226;27;96544;-61
2023/09/30 10:08:32;;;;;;;;;23.40;21.00;;;;;21.72;100.00;99276.13;6192264;28;98578;-61
2023/09/30 10:11:36;;;;;;;;;21.00;18.00;;;;;21.64;100.00;99275.94;6237141;27;96315;-62
2023/09/30 10:14:39;;;;;;;;;23.25;21.00;;;;;21.74;100.00;99273.94;6236168;27;96935;-61
2023/09/30 10:17:59;;;;;;;;;22.00;19.00;;;;;21.76;100.00;99277.19;6236598;28;96563;-61
2023/09/30 10:21:10;;;;;;;;;23.80;21.80;;;;;21.73;100.00;99274.22;6236890;28;96997;-61
2023/09/30 10:24:29;;;;;;;;;20.00;19.00;;;;;21.76;100.00;99285.44;6241472;27;98460;-62
2023/09/30 10:27:37;;;;;;;;;19.00;18.00;;;;;21.58;100.00;99277.88;6237632;28;96457;-61
2023/09/30 10:31:12;;;;;;;;;20.20;19.20;;;;;21.45;100.00;99279.31;6236795;28;96280;-61
2023/09/30 10:34:22;;;;;;;;;17.25;17.00;;;;;21.38;100.00;99283.47;6239295;27;97844;-61
2023/09/30 10:37:25;;;;;;;;;16.00;15.00;;;;;21.28;100.00;99280.78;6236193;28;96667;-61
2023/09/30 10:40:31;;;;;;;;;17.80;16.00;;;;;21.32;100.00;99285.44;6201680;28;98441;-61
2023/09/30 10:43:35;;;;;;;;;22.00;20.75;;;;;21.32;100.00;99282.69;6201652;28;96653;-61
2023/09/30 10:46:40;;;;;;;;;18.60;17.60;;;;;21.36;100.00;99288.41;6234818;28;96587;-61
2023/09/30 10:49:43;;;;;;;;;21.75;19.75;;;;;21.35;100.00;99284.88;6213461;28;96506;-61
2023/09/30 10:52:46;;;;;;;;;21.40;19.00;;;;;21.27;100.00;99288.19;6235209;28;96595;-62
2023/09/30 10:55:55;;;;;;;;;18.00;18.00;;;;;21.18;100.00;99293.44;6219002;28;96835;-62
2023/09/30 10:58:59;;;;;;;;;20.50;19.25;;;;;21.12;100.00;99286.31;6216152;28;98547;-62
2023/09/30 11:02:04;;;;;;;;;19.00;17.60;;;;;21.09;100.00;99288.81;6233934;28;96415;-62
2023/09/30 11:05:11;;;;;;;;;17.75;15.50;;;;;20.97;100.00;99291.84;6232994;28;96264;-62
2023/09/30 11:08:17;;;;;;;;;13.60;12.60;;;;;20.90;100.00;99290.53;6235361;28;98312;-63
2023/09/30 11:11:34;;;;;;;;;13.80;13.00;;;;;20.87;100.00;99271.88;6251659;27;97875;-61
2023/09/30 11:14:37;;;;;;;;;14.00;14.00;;;;;20.92;100.00;99288.31;6237057;28;96393;-61
2023/09/30 11:17:42;;;;;;;;;14.00;13.00;;;;;20.92;100.00;99291.88;6236858;28;96401;-62
2023/09/30 11:20:46;;;;;;;;;15.00;13.00;;;;;20.89;100.00;99289.69;6218789;28;96467;-61
2023/09/30 11:23:49;;;;;;;;;11.40;10.60;;;;;20.89;100.00;99303.41;6236502;28;96913;-61
2023/09/30 11:26:55;;;;;;;;;11.00;10.00;;;;;20.90;100.00;99296.00;6236387;28;96599;-61
2023/09/30 11:29:59;;;;;;;;;11.00;10.60;;;;;20.87;100.00;99291.06;6212765;28;98666;-62
2023/09/30 11:33:04;;;;;;;;;11.40;10.40;;;;;20.92;100.00;99293.78;6221578;27;96460;-61
2023/09/30 11:36:07;;;;;;;;;10.60;9.60;;;;;20.91;100.00;99295.72;6228860;27;97565;-61
2023/09/30 11:39:13;;;;;;;;;8.60;8.00;;;;;20.88;100.00;99298.19;6232816;28;96989;-62
2023/09/30 11:42:19;;;;;;;;;7.50;7.50;;;;;20.89;100.00;99299.84;6255350;27;96339;-62
2023/09/30 11:45:23;;;;;;;;;8.00;8.00;;;;;20.84;100.00;99297.94;6236607;27;96313;-61
2023/09/30 11:48:28;;;;;;;;;10.40;9.40;;;;;20.87;100.00;99302.03;6233763;28;97596;-61
2023/09/30 11:51:45;;;;;;;;;7.00;7.00;;;;;20.79;100.00;99294.38;6215948;28;98257;-62
2023/09/30 11:54:48;;;;;;;;;7.60;7.60;;;;;20.86;100.00;99298.50;6241112;27;96352;-62
2023/09/30 11:57:54;;;;;;;;;9.20;9.00;;;;;20.91;100.00;99289.44;6251943;27;96410;-62
2023/09/30 12:00:59;;;;;;;;;9.00;9.00;;;;;20.90;100.00;99288.59;6221839;27;98376;-61
2023/09/30 12:04:04;;;;;;;;;8.40;8.00;;;;;20.90;100.00;99285.03;6228585;27;97218;-62
2023/09/30 12:07:08;;;;;;;;;7.60;7.00;;;;;20.95;100.00;99285.03;6240961;27;96394;-61
2023/09/30 12:10:13;;;;;;;;;7.50;7.00;;;;;21.04;100.00;99288.81;6238645;28;96477;-62
2023/09/30 12:13:18;;;;;;;;;7.20;7.00;;;;;21.00;100.00;99287.75;6240074;28;96486;-61
2023/09/30 12:16:23;;;;;;;;;7.75;7.75;;;;;21.09;100.00;99291.53;6231296;28;96757;-61
2023/09/30 12:19:27;;;;;;;;;6.80;6.80;;;;;21.04;100.00;99289.66;6235601;28;96878;-62
2023/09/30 12:22:30;;;;;;;;;5.00;5.00;;;;;21.01;100.00;99292.94;6232423;27;96647;-61
2023/09/30 12:25:33;;;;;;;;;7.00;5.40;;;;;20.95;100.00;99282.28;6266158;27;96338;-61
2023/09/30 12:28:37;;;;;;;;;5.00;4.20;;;;;21.01;100.00;99283.91;6264631;27;96289;-61
2023/09/30 12:31:40;;;;;;;;;5.80;4.80;;;;;21.06;100.00;99281.16;6223088;28;96370;-61
2023/09/30 12:34:55;;;;;;;;;8.00;6.60;;;;;21.03;100.00;99288.00;6226591;28;96296;-61
2023/09/30 12:37:59;;;;;;;;;6.40;6.00;;;;;21.11;100.00;99286.63;6239898;28;96420;-62
2023/09/30 12:41:03;;;;;;;;;7.40;6.40;;;;;21.19;100.00;99291.53;6241884;27;96422;-61
2023/09/30 12:44:07;;;;;;;;;6.00;6.00;;;;;21.24;100.00;99285.19;6238885;27;96325;-61
2023/09/30 12:47:10;;;;;;;;;9.00;8.00;;;;;21.30;100.00;99284.09;6238836;28;96491;-61
2023/09/30 12:50:15;;;;;;;;;7.00;6.60;;;;;21.38;100.00;99284.31;6238238;28;96388;-62
2023/09/30 12:53:18;;;;;;;;;8.00;8.00;;;;;21.45;100.00;99275.78;6221269;28;98417;-61
2023/09/30 12:56:21;;;;;;;;;8.00;7.00;;;;;21.51;100.00;99278.19;6222357;28;96403;-61
2023/09/30 12:59:25;;;;;;;;;6.00;6.00;;;;;21.53;100.00;99281.47;6238684;28;96637;-61
2023/09/30 13:02:29;;;;;;;;;8.00;7.60;;;;;21.57;100.00;99276.25;6233126;28;96441;-61
2023/09/30 13:05:33;;;;;;;;;6.50;6.50;;;;;21.55;100.00;99275.72;6233631;28;96671;-61
2023/09/30 13:08:36;;;;;;;;;9.20;8.00;;;;;21.56;100.00;99269.94;6238211;28;96964;-61
2023/09/30 13:11:41;;;;;;;;;12.00;10.60;;;;;21.56;100.00;99272.66;6239435;28;97037;-61
2023/09/30 13:14:44;;;;;;;;;10.80;9.00;;;;;21.57;100.00;99262.53;6239530;28;96394;-61
2023/09/30 13:17:47;;;;;;;;;10.00;9.20;;;;;21.53;100.00;99266.94;6255385;27;96971;-62
2023/09/30 13:20:52;;;;;;;;;10.25;9.00;;;;;21.51;100.00;99256.25;6237334;28;96494;-63
2023/09/30 13:23:56;;;;;;;;;9.80;9.00;;;;;21.56;100.00;99269.94;6237700;28;96523;-62
2023/09/30 13:26:59;;;;;;;;;11.00;11.00;;;;;21.61;100.00;99269.91;6236282;28;96386;-61
2023/09/30 13:30:02;;;;;;;;;11.40;11.00;;;;;21.60;100.00;99265.50;6237808;28;96874;-62
2023/09/30 13:33:06;;;;;;;;;13.40;12.00;;;;;21.65;100.00;99272.09;6224765;28;96402;-61
2023/09/30 13:36:11;;;;;;;;;9.80;9.20;;;;;21.52;100.00;99270.78;6243497;27;96294;-61
2023/09/30 13:39:14;;;;;;;;;12.00;11.00;;;;;21.56;100.00;99271.84;6238734;28;96426;-61
2023/09/30 13:42:17;;;;;;;;;11.00;10.25;;;;;21.51;100.00;99267.22;6232882;28;96573;-61
2023/09/30 13:45:20;;;;;;;;;10.20;10.00;;;;;21.56;100.00;99264.44;6216662;28;96608;-62
2023/09/30 13:48:24;;;;;;;;;11.00;10.00;;;;;21.64;100.00;99279.50;6230975;27;96721;-62
2023/09/30 13:51:29;;;;;;;;;9.00;9.00;;;;;21.66;100.00;99270.97;6214953;28;96996;-62
2023/09/30 13:54:33;;;;;;;;;13.00;12.00;;;;;21.65;100.00;99267.38;6234563;28;96787;-61
2023/09/30 13:57:36;;;;;;;;;13.00;12.00;;;;;21.67;100.00;99278.91;6243957;27;96775;-61
2023/09/30 14:00:39;;;;;;;;;11.40;10.40;;;;;21.74;100.00;99273.94;6248964;27;96253;-62